createdAt,value
2017-05-24T00:00:39.638Z,13.32
2017-05-24T00:03:13.864Z,13.24
2017-05-24T00:05:48.247Z,12.84
2017-05-24T00:08:22.578Z,13.14
2017-05-24T00:10:56.812Z,12.70
2017-05-24T00:13:31.223Z,13.70
2017-05-24T00:16:05.393Z,13.76
2017-05-24T00:18:39.566Z,14.34
2017-05-24T00:21:13.992Z,14.82
2017-05-24T00:23:48.161Z,15.82
2017-05-24T00:26:22.369Z,15.98
2017-05-24T00:28:56.500Z,16.02
2017-05-24T00:31:30.565Z,14.78
2017-05-24T00:34:04.800Z,14.96
2017-05-24T00:36:39.127Z,13.32
2017-05-24T00:39:13.533Z,14.80
2017-05-24T00:41:47.603Z,14.20
2017-05-24T00:44:21.860Z,14.10
2017-05-24T00:46:55.920Z,14.72
2017-05-24T00:49:30.161Z,13.08
2017-05-24T00:52:04.385Z,13.42
2017-05-24T00:54:38.556Z,13.10
2017-05-24T00:57:12.605Z,13.48
2017-05-24T00:59:46.713Z,12.92
2017-05-24T01:02:20.955Z,13.22
2017-05-24T01:04:55.205Z,14.04
2017-05-24T01:07:29.423Z,14.58
2017-05-24T01:10:03.631Z,14.04
2017-05-24T01:12:39.043Z,13.44
2017-05-24T01:15:23.184Z,13.96
2017-05-24T01:17:57.409Z,14.42
2017-05-24T01:20:31.686Z,15.06
2017-05-24T01:23:05.919Z,13.86
2017-05-24T01:25:42.139Z,14.26
2017-05-24T01:28:16.364Z,14.04
2017-05-24T01:30:50.666Z,12.86
2017-05-24T01:33:24.882Z,15.48
2017-05-24T01:35:59.113Z,15.70
2017-05-24T01:38:33.271Z,13.03
2017-05-24T01:41:07.534Z,13.42
2017-05-24T01:43:42.610Z,13.92
2017-05-24T01:46:16.916Z,12.02
2017-05-24T01:48:51.078Z,12.82
2017-05-24T01:51:25.281Z,11.62
2017-05-24T01:53:59.412Z,12.30
2017-05-24T01:56:33.484Z,11.84
2017-05-24T01:59:07.641Z,11.38
2017-05-24T02:01:41.835Z,10.46
2017-05-24T02:04:16.008Z,9.52
2017-05-24T02:06:50.193Z,9.10
2017-05-24T02:09:24.459Z,9.30
2017-05-24T02:11:58.569Z,9.48
2017-05-24T02:14:32.782Z,8.52
2017-05-24T02:17:07.048Z,8.58
2017-05-24T02:19:41.290Z,9.10
2017-05-24T02:22:15.590Z,9.06
2017-05-24T02:24:49.867Z,8.90
2017-05-24T02:27:23.986Z,9.02
2017-05-24T02:29:58.221Z,9.46
2017-05-24T02:32:32.692Z,8.52
2017-05-24T02:35:06.911Z,8.10
2017-05-24T02:37:41.074Z,8.66
2017-05-24T02:40:15.656Z,8.40
2017-05-24T02:42:49.898Z,8.88
2017-05-24T02:45:24.101Z,7.84
2017-05-24T02:48:02.059Z,7.57
2017-05-24T02:50:36.207Z,7.30
2017-05-24T02:53:10.464Z,6.88
2017-05-24T02:55:44.559Z,6.10
2017-05-24T02:58:18.813Z,6.60
2017-05-24T03:00:53.187Z,6.00
2017-05-24T03:03:27.300Z,6.08
2017-05-24T03:06:01.406Z,5.42
2017-05-24T03:08:35.533Z,4.48
2017-05-24T03:11:09.752Z,5.26
2017-05-24T03:13:43.805Z,5.68
2017-05-24T03:16:17.984Z,5.28
2017-05-24T03:18:52.101Z,4.88
2017-05-24T03:21:26.166Z,4.88
2017-05-24T03:24:00.276Z,5.06
2017-05-24T03:26:34.284Z,4.58
2017-05-24T03:29:08.458Z,5.34
2017-05-24T03:31:42.660Z,5.18
2017-05-24T03:34:16.876Z,4.96
2017-05-24T03:36:51.085Z,4.82
2017-05-24T03:39:25.089Z,5.26
2017-05-24T03:41:59.265Z,5.58
2017-05-24T03:44:33.493Z,6.08
2017-05-24T03:47:07.661Z,6.18
2017-05-24T03:49:41.996Z,5.82
2017-05-24T03:52:16.222Z,5.82
2017-05-24T03:54:50.441Z,5.80
2017-05-24T03:57:24.435Z,5.94
2017-05-24T03:59:58.681Z,5.86
2017-05-24T04:02:33.117Z,5.60
2017-05-24T04:05:07.180Z,5.78
2017-05-24T04:07:41.236Z,6.60
2017-05-24T04:10:15.433Z,6.16
2017-05-24T04:12:49.659Z,6.22
2017-05-24T04:15:23.944Z,6.20
2017-05-24T04:17:58.177Z,6.58
2017-05-24T04:20:32.231Z,6.08
2017-05-24T04:23:06.291Z,6.98
2017-05-24T04:25:40.432Z,6.66
2017-05-24T04:28:14.693Z,6.36
2017-05-24T04:30:49.069Z,6.78
2017-05-24T04:33:23.295Z,6.96
2017-05-24T04:35:57.443Z,6.40
2017-05-24T04:38:31.738Z,7.70
2017-05-24T04:41:06.062Z,7.72
2017-05-24T04:43:40.949Z,6.82
2017-05-24T04:46:15.217Z,7.36
2017-05-24T04:48:49.272Z,7.66
2017-05-24T04:51:23.309Z,9.46
2017-05-24T04:53:57.473Z,8.02
2017-05-24T04:56:31.609Z,8.48
2017-05-24T04:59:05.766Z,10.50
2017-05-24T05:01:39.865Z,7.46
2017-05-24T05:04:14.045Z,9.16
2017-05-24T05:06:48.238Z,8.84
2017-05-24T05:09:22.395Z,10.42
2017-05-24T05:11:56.569Z,8.16
2017-05-24T05:14:30.910Z,7.64
2017-05-24T05:17:05.066Z,7.60
2017-05-24T05:19:39.257Z,8.20
2017-05-24T05:22:13.549Z,7.82
2017-05-24T05:24:47.612Z,8.14
2017-05-24T05:27:21.768Z,8.42
2017-05-24T05:29:55.862Z,8.48
2017-05-24T05:32:29.957Z,9.08
2017-05-24T05:35:03.973Z,10.04
2017-05-24T05:37:38.171Z,10.86
2017-05-24T05:40:12.278Z,9.64
2017-05-24T05:42:46.484Z,9.36
2017-05-24T05:45:20.664Z,9.82
2017-05-24T05:47:54.808Z,10.62
2017-05-24T05:50:28.985Z,9.64
2017-05-24T05:53:03.218Z,9.82
2017-05-24T05:55:37.238Z,9.70
2017-05-24T05:58:11.402Z,10.60
2017-05-24T06:00:45.475Z,10.14
2017-05-24T06:03:19.716Z,9.78
2017-05-24T06:05:54.025Z,10.64
2017-05-24T06:08:28.095Z,10.92
2017-05-24T06:11:02.366Z,10.58
2017-05-24T06:13:36.641Z,10.40
2017-05-24T06:16:10.774Z,9.62
2017-05-24T06:18:45.084Z,10.52
2017-05-24T06:21:19.165Z,9.38
2017-05-24T06:23:55.350Z,9.98
2017-05-24T06:26:29.644Z,10.12
2017-05-24T06:29:05.568Z,9.26
2017-05-24T06:31:39.650Z,9.30
2017-05-24T06:34:13.768Z,9.82
2017-05-24T06:36:48.009Z,9.18
2017-05-24T06:39:22.045Z,9.20
2017-05-24T06:41:56.133Z,9.72
2017-05-24T06:44:30.174Z,10.12
2017-05-24T06:47:04.353Z,9.10
2017-05-24T06:49:38.472Z,9.28
2017-05-24T06:52:12.652Z,8.98
2017-05-24T06:54:46.897Z,9.12
2017-05-24T06:57:20.988Z,8.68
2017-05-24T06:59:55.050Z,10.14
2017-05-24T07:02:29.208Z,9.18
2017-05-24T07:05:03.255Z,9.52
2017-05-24T07:07:37.424Z,9.32
2017-05-24T07:10:11.494Z,9.34
2017-05-24T07:12:45.703Z,10.08
2017-05-24T07:15:19.962Z,9.68
2017-05-24T07:17:54.326Z,11.16
2017-05-24T07:20:28.370Z,10.72
2017-05-24T07:23:02.362Z,9.92
2017-05-24T07:25:36.568Z,10.34
2017-05-24T07:28:10.716Z,8.78
2017-05-24T07:30:44.803Z,10.08
2017-05-24T07:33:18.976Z,10.28
2017-05-24T07:35:53.341Z,8.90
2017-05-24T07:38:27.499Z,9.06
2017-05-24T07:41:01.733Z,9.82
2017-05-24T07:43:35.778Z,10.20
2017-05-24T07:46:10.032Z,9.62
2017-05-24T07:48:44.213Z,11.30
2017-05-24T07:51:18.304Z,10.26
2017-05-24T07:53:52.560Z,10.76
2017-05-24T07:56:26.652Z,12.52
2017-05-24T07:59:00.713Z,11.58
2017-05-24T08:01:34.817Z,11.84
2017-05-24T08:04:08.925Z,11.72
2017-05-24T08:06:43.085Z,10.84
2017-05-24T08:09:17.332Z,11.20
2017-05-24T08:11:51.528Z,11.32
2017-05-24T08:14:25.539Z,11.38
2017-05-24T08:16:59.717Z,10.08
2017-05-24T08:19:33.758Z,11.66
2017-05-24T08:22:08.067Z,11.00
2017-05-24T08:24:42.195Z,12.90
2017-05-24T08:27:16.298Z,10.72
2017-05-24T08:29:50.497Z,10.12
2017-05-24T08:32:24.595Z,10.64
2017-05-24T08:34:58.770Z,10.34
2017-05-24T08:37:32.956Z,9.48
2017-05-24T08:40:07.094Z,9.20
2017-05-24T08:42:41.589Z,11.12
2017-05-24T08:45:15.641Z,8.96
2017-05-24T08:47:49.676Z,9.26
2017-05-24T08:50:23.904Z,8.94
2017-05-24T08:52:58.148Z,10.56
2017-05-24T08:55:32.202Z,9.58
2017-05-24T08:58:06.318Z,8.76
2017-05-24T09:00:41.639Z,8.70
2017-05-24T09:03:15.805Z,8.32
2017-05-24T09:05:49.969Z,8.42
2017-05-24T09:08:24.061Z,8.44
2017-05-24T09:10:58.101Z,9.36
2017-05-24T09:13:32.342Z,8.94
2017-05-24T09:16:06.635Z,9.06
2017-05-24T09:18:40.780Z,10.44
2017-05-24T09:21:14.926Z,10.20
2017-05-24T09:23:49.049Z,10.28
2017-05-24T09:26:23.112Z,10.40
2017-05-24T09:28:58.445Z,9.92
2017-05-24T09:31:32.540Z,10.20
2017-05-24T09:34:06.659Z,12.00
2017-05-24T09:36:40.893Z,11.26
2017-05-24T09:39:14.926Z,11.92
2017-05-24T09:41:49.097Z,10.92
2017-05-24T09:44:23.270Z,11.70
2017-05-24T09:46:57.402Z,9.64
2017-05-24T09:49:31.485Z,9.42
2017-05-24T09:52:05.557Z,10.13
2017-05-24T09:54:39.789Z,11.32
2017-05-24T09:57:13.769Z,11.60
2017-05-24T09:59:47.865Z,12.74
2017-05-24T10:02:21.953Z,11.33
2017-05-24T10:04:56.062Z,9.98
2017-05-24T10:07:30.161Z,10.88
2017-05-24T10:10:04.363Z,10.94
2017-05-24T10:12:38.455Z,9.78
2017-05-24T10:15:12.616Z,11.72
2017-05-24T10:17:46.712Z,10.64
2017-05-24T10:20:20.899Z,10.76
2017-05-24T10:22:54.988Z,12.00
2017-05-24T10:25:29.028Z,11.92
2017-05-24T10:28:03.222Z,12.70
2017-05-24T10:30:37.457Z,14.24
2017-05-24T10:33:11.771Z,12.22
2017-05-24T10:35:45.968Z,14.16
2017-05-24T10:38:20.161Z,14.64
2017-05-24T10:41:00.208Z,15.48
2017-05-24T10:43:34.555Z,16.78
2017-05-24T10:46:08.763Z,15.48
2017-05-24T10:48:42.923Z,16.94
2017-05-24T10:51:16.929Z,17.84
2017-05-24T10:53:51.256Z,16.30
2017-05-24T10:56:25.459Z,16.34
2017-05-24T10:58:59.631Z,17.92
2017-05-24T11:01:33.949Z,16.80
2017-05-24T11:04:08.049Z,16.56
2017-05-24T11:06:42.232Z,16.24
2017-05-24T11:09:16.615Z,15.90
2017-05-24T11:11:50.758Z,14.16
2017-05-24T11:14:24.859Z,16.40
2017-05-24T11:16:59.036Z,15.08
2017-05-24T11:19:33.257Z,12.50
2017-05-24T11:22:07.478Z,13.90
2017-05-24T11:24:41.652Z,13.68
2017-05-24T11:27:15.769Z,12.06
2017-05-24T11:29:49.908Z,12.34
2017-05-24T11:32:24.140Z,12.82
2017-05-24T11:34:58.293Z,12.10
2017-05-24T11:37:32.501Z,15.00
2017-05-24T11:40:06.702Z,15.80
2017-05-24T11:42:40.798Z,12.02
2017-05-24T11:45:14.881Z,10.94
2017-05-24T11:47:49.009Z,11.68
2017-05-24T11:50:23.178Z,9.66
2017-05-24T11:52:57.221Z,10.30
2017-05-24T11:55:31.243Z,10.32
2017-05-24T11:58:05.432Z,11.70
2017-05-24T12:00:40.166Z,10.68
2017-05-24T12:03:14.227Z,10.78
2017-05-24T12:05:48.778Z,12.98
2017-05-24T12:08:22.889Z,11.10
2017-05-24T12:10:56.885Z,12.70
2017-05-24T12:13:31.200Z,11.74
2017-05-24T12:16:05.299Z,11.66
2017-05-24T12:18:39.346Z,12.66
2017-05-24T12:21:13.405Z,11.86
2017-05-24T12:23:47.566Z,12.18
2017-05-24T12:26:21.702Z,12.28
2017-05-24T12:28:56.141Z,13.88
2017-05-24T12:31:30.406Z,13.18
2017-05-24T12:34:04.649Z,13.98
2017-05-24T12:36:38.844Z,14.68
2017-05-24T12:39:12.975Z,13.38
2017-05-24T12:41:47.022Z,13.42
2017-05-24T12:44:21.256Z,13.48
2017-05-24T12:46:55.408Z,14.70
2017-05-24T12:49:29.748Z,16.26
2017-05-24T12:52:04.062Z,17.54
2017-05-24T12:54:38.308Z,18.50
2017-05-24T12:57:12.665Z,16.84
2017-05-24T12:59:46.962Z,16.88
2017-05-24T13:02:22.229Z,19.62
2017-05-24T13:04:56.422Z,20.16
2017-05-24T13:07:30.508Z,18.28
2017-05-24T13:10:04.701Z,16.96
2017-05-24T13:12:38.982Z,16.46
2017-05-24T13:15:13.108Z,14.26
2017-05-24T13:17:47.337Z,15.74
2017-05-24T13:20:21.643Z,13.78
2017-05-24T13:22:55.806Z,12.40
2017-05-24T13:25:30.002Z,12.46
2017-05-24T13:28:04.321Z,10.72
2017-05-24T13:30:38.361Z,11.12
2017-05-24T13:33:12.490Z,10.60
2017-05-24T13:35:46.807Z,9.42
2017-05-24T13:38:20.869Z,9.74
2017-05-24T13:40:54.977Z,8.28
2017-05-24T13:43:29.127Z,7.34
2017-05-24T13:46:03.408Z,8.66
2017-05-24T13:48:37.585Z,8.12
2017-05-24T13:51:11.632Z,7.90
2017-05-24T13:53:45.855Z,8.30
2017-05-24T13:56:19.955Z,7.48
2017-05-24T13:58:54.045Z,7.26
2017-05-24T14:01:28.127Z,8.50
2017-05-24T14:04:02.265Z,8.52
2017-05-24T14:06:36.338Z,8.84
2017-05-24T14:09:10.560Z,9.36
2017-05-24T14:11:44.816Z,9.88
2017-05-24T14:14:18.926Z,9.52
2017-05-24T14:16:53.173Z,10.72
2017-05-24T14:19:27.296Z,7.36
2017-05-24T14:22:01.574Z,6.58
2017-05-24T14:24:35.614Z,6.48
2017-05-24T14:27:09.770Z,7.40
2017-05-24T14:29:44.001Z,6.50
2017-05-24T14:32:18.073Z,6.52
2017-05-24T14:34:52.305Z,6.30
2017-05-24T14:37:26.436Z,6.88
2017-05-24T14:40:00.709Z,6.42
2017-05-24T14:42:34.891Z,6.10
2017-05-24T14:45:09.162Z,5.66
2017-05-24T14:47:43.302Z,5.64
2017-05-24T14:50:17.314Z,7.38
2017-05-24T14:52:51.570Z,5.68
2017-05-24T14:55:25.640Z,4.96
2017-05-24T14:57:59.881Z,4.92
2017-05-24T15:00:34.202Z,6.42
2017-05-24T15:03:08.228Z,5.90
2017-05-24T15:05:42.409Z,5.96
2017-05-24T15:08:16.605Z,6.02
2017-05-24T15:10:50.858Z,5.80
2017-05-24T15:13:24.930Z,5.40
2017-05-24T15:15:59.085Z,5.14
2017-05-24T15:18:33.133Z,5.06
2017-05-24T15:21:07.313Z,5.54
2017-05-24T15:23:41.561Z,5.20
2017-05-24T15:26:15.725Z,5.70
2017-05-24T15:28:50.338Z,6.04
2017-05-24T15:31:24.420Z,5.00
2017-05-24T15:33:58.619Z,5.62
2017-05-24T15:36:32.785Z,5.40
2017-05-24T15:39:07.010Z,5.36
2017-05-24T15:41:41.201Z,5.76
2017-05-24T15:44:15.461Z,5.08
2017-05-24T15:46:49.657Z,5.26
2017-05-24T15:49:23.721Z,5.48
2017-05-24T15:51:58.086Z,5.12
2017-05-24T15:54:32.237Z,4.74
2017-05-24T15:57:06.478Z,5.18
2017-05-24T15:59:40.736Z,5.00
2017-05-24T16:02:14.833Z,4.36
2017-05-24T16:04:49.064Z,4.62
2017-05-24T16:07:23.035Z,5.00
2017-05-24T16:09:57.178Z,4.46
2017-05-24T16:12:31.242Z,4.56
2017-05-24T16:15:05.274Z,4.86
2017-05-24T16:17:39.483Z,4.20
2017-05-24T16:20:13.577Z,4.60
2017-05-24T16:22:47.692Z,4.52
2017-05-24T16:25:21.764Z,4.58
2017-05-24T16:27:55.827Z,4.40
2017-05-24T16:30:29.971Z,4.30
2017-05-24T16:33:04.220Z,4.34
2017-05-24T16:35:38.405Z,3.88
2017-05-24T16:38:12.449Z,3.78
2017-05-24T16:40:46.773Z,4.02
2017-05-24T16:43:20.801Z,4.28
2017-05-24T16:45:54.889Z,3.64
2017-05-24T16:48:28.952Z,4.20
2017-05-24T16:51:03.228Z,4.20
2017-05-24T16:53:37.429Z,3.90
2017-05-24T16:56:11.705Z,4.80
2017-05-24T16:58:45.740Z,4.04
2017-05-24T17:01:19.801Z,4.04
2017-05-24T17:03:54.105Z,3.72
2017-05-24T17:06:28.154Z,3.88
2017-05-24T17:09:02.335Z,4.72
2017-05-24T17:11:36.521Z,3.86
2017-05-24T17:14:10.670Z,3.84
2017-05-24T17:16:44.860Z,4.72
2017-05-24T17:19:18.916Z,4.46
2017-05-24T17:21:53.075Z,3.90
2017-05-24T17:24:27.138Z,4.06
2017-05-24T17:27:01.276Z,4.08
2017-05-24T17:29:35.442Z,3.94
2017-05-24T17:32:10.118Z,4.74
2017-05-24T17:34:44.100Z,4.12
2017-05-24T17:37:18.353Z,4.18
2017-05-24T17:39:52.562Z,3.60
2017-05-24T17:42:26.768Z,4.22
2017-05-24T17:45:00.876Z,4.70
2017-05-24T17:47:34.937Z,4.24
2017-05-24T17:50:09.140Z,3.92
2017-05-24T17:52:43.404Z,4.58
2017-05-24T17:55:17.431Z,4.00
2017-05-24T17:57:51.573Z,4.02
2017-05-24T18:00:25.740Z,3.44
2017-05-24T18:03:00.033Z,3.96
2017-05-24T18:05:34.081Z,4.30
2017-05-24T18:08:08.497Z,4.20
2017-05-24T18:10:42.634Z,4.40
2017-05-24T18:13:16.734Z,3.98
2017-05-24T18:15:50.925Z,4.12
2017-05-24T18:18:25.172Z,3.86
2017-05-24T18:20:59.329Z,3.66
2017-05-24T18:23:33.381Z,4.20
2017-05-24T18:26:07.519Z,4.02
2017-05-24T18:28:41.781Z,3.90
2017-05-24T18:31:15.954Z,3.30
2017-05-24T18:33:50.125Z,4.16
2017-05-24T18:36:24.162Z,4.00
2017-05-24T18:38:58.336Z,3.62
2017-05-24T18:41:32.604Z,3.40
2017-05-24T18:44:06.706Z,3.80
2017-05-24T18:46:40.884Z,3.82
2017-05-24T18:49:14.973Z,4.30
2017-05-24T18:51:49.080Z,4.48
2017-05-24T18:54:23.391Z,5.02
2017-05-24T18:56:57.621Z,5.22
2017-05-24T18:59:31.637Z,6.14
2017-05-24T19:02:05.780Z,6.36
2017-05-24T19:04:39.929Z,6.02
2017-05-24T19:07:14.194Z,6.16
2017-05-24T19:09:48.648Z,6.62
2017-05-24T19:12:22.712Z,6.00
2017-05-24T19:14:57.061Z,6.40
2017-05-24T19:17:31.277Z,6.20
2017-05-24T19:20:05.468Z,6.12
2017-05-24T19:22:39.713Z,6.16
2017-05-24T19:25:13.785Z,6.92
2017-05-24T19:27:48.134Z,6.08
2017-05-24T19:30:22.219Z,6.52
2017-05-24T19:32:56.409Z,7.00
2017-05-24T19:35:30.445Z,7.50
2017-05-24T19:38:04.497Z,7.12
2017-05-24T19:40:38.690Z,6.30
2017-05-24T19:43:12.749Z,6.46
2017-05-24T19:45:46.782Z,7.12
2017-05-24T19:48:20.977Z,6.88
2017-05-24T19:50:55.132Z,7.14
2017-05-24T19:53:29.217Z,6.80
2017-05-24T19:56:03.390Z,6.90
2017-05-24T19:58:37.437Z,7.10
2017-05-24T20:01:12.767Z,7.08
2017-05-24T20:03:46.975Z,7.48
2017-05-24T20:06:21.060Z,7.20
2017-05-24T20:08:55.258Z,6.88
2017-05-24T20:11:29.459Z,7.12
2017-05-24T20:14:03.685Z,7.98
2017-05-24T20:16:37.733Z,8.48
2017-05-24T20:19:11.861Z,7.16
2017-05-24T20:21:46.257Z,7.66
2017-05-24T20:24:20.298Z,7.32
2017-05-24T20:26:54.509Z,8.00
2017-05-24T20:29:28.723Z,7.90
2017-05-24T20:32:02.874Z,8.42
2017-05-24T20:34:37.469Z,8.00
2017-05-24T20:37:11.598Z,7.88
2017-05-24T20:39:45.756Z,8.28
2017-05-24T20:42:19.776Z,8.32
2017-05-24T20:44:53.810Z,7.52
2017-05-24T20:47:27.850Z,7.92
2017-05-24T20:50:02.056Z,8.54
2017-05-24T20:52:36.247Z,9.16
2017-05-24T20:55:10.299Z,8.70
2017-05-24T20:57:44.462Z,10.14
2017-05-24T21:00:18.516Z,10.08
2017-05-24T21:02:52.705Z,8.74
2017-05-24T21:05:26.755Z,9.02
2017-05-24T21:08:00.963Z,8.36
2017-05-24T21:10:35.017Z,8.64
2017-05-24T21:13:09.161Z,8.70
2017-05-24T21:15:43.210Z,8.46
2017-05-24T21:18:17.289Z,8.42
2017-05-24T21:20:51.505Z,8.26
2017-05-24T21:23:25.761Z,9.36
2017-05-24T21:25:59.872Z,9.36
2017-05-24T21:28:34.025Z,9.50
2017-05-24T21:31:08.293Z,8.72
2017-05-24T21:33:43.852Z,8.66
2017-05-24T21:36:18.086Z,8.90
2017-05-24T21:38:52.282Z,9.38
2017-05-24T21:41:26.368Z,9.24
2017-05-24T21:44:00.550Z,7.92
2017-05-24T21:46:34.796Z,8.50
2017-05-24T21:49:08.868Z,8.48
2017-05-24T21:51:43.057Z,8.18
2017-05-24T21:54:17.200Z,9.14
2017-05-24T21:56:51.346Z,9.04
2017-05-24T21:59:25.653Z,8.28
2017-05-24T22:01:59.729Z,7.84
2017-05-24T22:04:36.849Z,7.62
2017-05-24T22:07:10.996Z,8.16
2017-05-24T22:09:45.128Z,7.34
2017-05-24T22:14:46.589Z,7.32
2017-05-24T22:17:20.745Z,8.24
2017-05-24T22:19:54.887Z,7.60
2017-05-24T22:22:29.124Z,8.10
2017-05-24T22:25:03.218Z,7.30
2017-05-24T22:27:37.602Z,7.82
2017-05-24T22:30:11.828Z,7.54
2017-05-24T22:32:46.180Z,7.54
2017-05-24T22:35:20.481Z,7.04
2017-05-24T22:37:54.630Z,6.90
2017-05-24T22:40:28.872Z,7.08
2017-05-24T22:43:03.094Z,7.50
2017-05-24T22:45:37.899Z,6.88
2017-05-24T22:48:12.073Z,6.06
2017-05-24T22:50:46.240Z,6.06
2017-05-24T22:53:20.356Z,6.24
2017-05-24T22:55:54.724Z,5.68
2017-05-24T22:58:28.913Z,6.86
2017-05-24T23:01:03.135Z,6.12
2017-05-24T23:03:37.201Z,5.38
2017-05-24T23:06:11.373Z,5.36
2017-05-24T23:08:45.521Z,5.34
2017-05-24T23:11:19.625Z,5.22
2017-05-24T23:13:53.763Z,5.12
2017-05-24T23:16:27.889Z,4.58
2017-05-24T23:19:01.969Z,5.06
2017-05-24T23:21:36.040Z,4.68
2017-05-24T23:24:10.149Z,4.10
2017-05-24T23:26:44.227Z,4.48
2017-05-24T23:29:18.322Z,4.80
2017-05-24T23:31:52.729Z,4.40
2017-05-24T23:34:26.897Z,4.22
2017-05-24T23:37:00.931Z,4.47
2017-05-24T23:39:35.019Z,4.84
2017-05-24T23:42:09.168Z,4.20
2017-05-24T23:44:43.439Z,3.94
2017-05-24T23:47:17.672Z,3.72
2017-05-24T23:49:52.002Z,3.80
2017-05-24T23:52:26.254Z,4.18
2017-05-24T23:55:00.449Z,3.44
2017-05-24T23:57:34.589Z,3.86
